Startpagina
METAR-TAF:

METAR-TAF

Vliegvelden :

Tasjkent, Oezbekistan

breedte: 41-16N, lengte: 069-16E, hoogte: 489 m

Actueel weer

Dit bericht is 26 minuten geleden gemaakt, om 13:00 UTC
Wind 4 kt uit het westnoordwesten
Temperatuur 29°C
Vochtigheid 18%
Druk 1015 hPa
Zicht 10 km of meer
geen wolken onder 1500 m en geen cumulonimbus

METAR: UTTT 191300Z 29004KT CAVOK 29/02 Q1015 R26R/CLRD70 NOSIG

Tijdstip: 18:26 (13:26 UTC)

Verwachting

Dit bericht is 2 uur en het 26 minuten geleden gemaakt, om 11:00 UTC
Verwachting geldig van 19 om 12 UTC tot 20 om 12 UTC
Wind 12 kt uit het noordwesten
Zicht: 7000 m

TAF: UTTT 191100Z 1912/2012 32012KT 7000 NSC

Waarnemingen en weersverwachtingen van meer dan 4000 vliegvelden (METAR en TAF).

De beschikbare stations zijn de gele en rode punten op de kaart.

Ga met uw muis naar het station om de naam te zien.

Klik dan om waarnemingen en weersverwachtingen te zien.

kaart wijzigen: klik op de groene knoppen met een zwart kruis om in te zoomen, op de groene knop met een streepje om uit te zoomen of op de groene pijlen voor aangrenzende kaarten.


METAR-TAF: